Time;durP1;ratioP1;P1;durP2;ratioP2;P2;SDS_P1;SDS_P2;PMS_P1;PMS_P2;Temp;Humidity;BMP_temperature;BMP_pressure;BME280_temperature;BME280_humidity;BME280_pressure;Samples;Min_cycle;Max_cycle;Signal;HPM_P1;HPM_P2
2021/03/07 00:00:10;;;;;;;166.98;93.95;;;0.70;94.00;;;;;;5042368;28;20049;-76
2021/03/07 00:02:37;;;;;;;160.65;85.93;;;0.70;94.20;;;;;;5042891;28;20060;-77
2021/03/07 00:05:04;;;;;;;164.98;90.88;;;0.80;94.10;;;;;;5039553;28;20001;-73
2021/03/07 00:07:31;;;;;;;161.90;89.30;;;0.80;93.90;;;;;;5040912;28;20022;-74
2021/03/07 00:09:57;;;;;;;190.70;98.18;;;0.80;93.70;;;;;;5043974;28;20049;-72
2021/03/07 00:12:24;;;;;;;174.15;93.03;;;0.70;93.70;;;;;;5041079;28;20022;-78
2021/03/07 00:14:50;;;;;;;197.32;103.07;;;0.70;93.90;;;;;;5043044;28;20001;-76
2021/03/07 00:17:16;;;;;;;183.55;98.50;;;0.70;94.10;;;;;;5041938;28;20040;-77
2021/03/07 00:19:42;;;;;;;165.00;91.03;;;0.60;94.10;;;;;;5042054;28;20489;-76
2021/03/07 00:22:07;;;;;;;170.40;91.10;;;0.50;94.40;;;;;;5036282;28;20052;-77
2021/03/07 00:24:34;;;;;;;171.23;92.07;;;0.50;94.50;;;;;;5036799;28;20021;-76
2021/03/07 00:26:59;;;;;;;161.82;87.80;;;0.60;94.50;;;;;;5036434;28;20026;-76
2021/03/07 00:29:27;;;;;;;157.35;83.68;;;0.60;94.00;;;;;;5039263;28;20036;-75
2021/03/07 00:31:53;;;;;;;150.63;84.72;;;0.60;93.80;;;;;;5040405;28;20048;-76
2021/03/07 00:34:19;;;;;;;161.10;88.47;;;0.70;93.70;;;;;;5037891;28;20360;-73
2021/03/07 00:36:45;;;;;;;159.52;85.05;;;0.70;93.60;;;;;;5039012;28;20010;-73
2021/03/07 00:39:11;;;;;;;158.00;86.90;;;0.70;93.40;;;;;;5040876;28;21080;-76
2021/03/07 00:41:37;;;;;;;170.77;91.68;;;0.60;93.50;;;;;;5042749;28;20033;-77
2021/03/07 00:44:10;;;;;;;172.07;93.25;;;0.50;93.60;;;;;;5045664;28;20021;-72
2021/03/07 00:46:41;;;;;;;187.45;100.88;;;0.50;94.40;;;;;;5042700;28;20034;-77
2021/03/07 00:49:07;;;;;;;215.98;106.40;;;0.40;94.00;;;;;;5039204;28;20053;-77
2021/03/07 00:51:33;;;;;;;212.00;103.22;;;0.50;94.20;;;;;;5044004;28;20040;-74
2021/03/07 00:54:00;;;;;;;187.93;94.97;;;0.40;94.20;;;;;;5042336;28;20017;-77
2021/03/07 00:56:26;;;;;;;186.68;92.90;;;0.30;94.30;;;;;;5040722;28;20387;-73
2021/03/07 00:58:52;;;;;;;162.02;80.03;;;0.40;94.00;;;;;;5041929;28;20363;-77
2021/03/07 01:01:18;;;;;;;169.32;81.53;;;0.40;94.00;;;;;;5041672;28;20487;-77
2021/03/07 01:03:44;;;;;;;180.52;85.38;;;0.30;93.90;;;;;;5040999;28;20021;-77
2021/03/07 01:06:10;;;;;;;189.65;83.55;;;0.40;94.10;;;;;;5043114;28;20021;-76
2021/03/07 01:08:36;;;;;;;137.77;68.25;;;0.40;94.10;;;;;;5043657;28;20025;-77
2021/03/07 01:11:03;;;;;;;115.60;59.85;;;0.30;94.10;;;;;;5040394;28;20021;-77
2021/03/07 01:13:29;;;;;;;110.10;59.60;;;0.20;94.20;;;;;;5038944;28;20061;-75
2021/03/07 01:15:55;;;;;;;103.40;57.95;;;0.20;94.10;;;;;;5042581;28;20029;-74
2021/03/07 01:18:21;;;;;;;108.25;58.13;;;0.30;94.10;;;;;;5042956;28;20005;-75
2021/03/07 01:20:48;;;;;;;111.15;59.05;;;0.20;94.30;;;;;;5040658;28;20022;-77
2021/03/07 01:23:15;;;;;;;109.32;59.72;;;0.20;94.20;;;;;;5040767;28;20008;-77
2021/03/07 01:25:42;;;;;;;100.55;56.92;;;0.20;94.10;;;;;;5042852;28;20423;-77
2021/03/07 01:28:08;;;;;;;104.20;60.25;;;0.20;94.10;;;;;;5041501;28;20029;-72
2021/03/07 01:30:37;;;;;;;101.78;58.92;;;0.30;93.90;;;;;;5039697;28;20030;-75
2021/03/07 01:33:04;;;;;;;99.90;56.45;;;0.30;94.10;;;;;;5041644;28;20029;-77
2021/03/07 01:35:30;;;;;;;87.47;49.60;;;0.20;94.10;;;;;;5042166;28;20013;-77
2021/03/07 01:37:56;;;;;;;85.13;46.80;;;0.20;94.00;;;;;;5044359;28;20022;-76
2021/03/07 01:40:27;;;;;;;88.95;48.53;;;0.20;94.00;;;;;;5043844;28;20025;-77
2021/03/07 01:42:55;;;;;;;87.25;48.38;;;0.20;93.70;;;;;;5045856;28;20010;-77
2021/03/07 01:45:26;;;;;;;83.80;48.20;;;0.10;94.00;;;;;;5041634;28;20017;-77
2021/03/07 01:47:55;;;;;;;75.32;43.53;;;0.10;93.60;;;;;;5044344;28;20083;-77
2021/03/07 01:50:27;;;;;;;81.38;44.67;;;0.20;93.70;;;;;;5044358;28;20045;-77
2021/03/07 01:52:53;;;;;;;80.43;45.40;;;0.20;93.70;;;;;;5044953;28;20356;-76
2021/03/07 01:55:23;;;;;;;81.45;45.35;;;0.20;93.20;;;;;;5046291;28;20032;-76
2021/03/07 01:58:13;;;;;;;84.85;45.70;;;0.10;93.20;;;;;;5046676;28;20077;-77
2021/03/07 02:00:39;;;;;;;72.35;40.97;;;0.10;93.50;;;;;;5037792;28;20536;-76
2021/03/07 02:03:05;;;;;;;81.20;44.03;;;0.20;93.40;;;;;;5044880;28;20026;-76
2021/03/07 02:05:32;;;;;;;88.68;47.88;;;0.10;93.00;;;;;;5045314;28;20040;-76
2021/03/07 02:07:58;;;;;;;114.97;60.85;;;0.10;92.80;;;;;;5044642;28;20021;-77
2021/03/07 02:10:30;;;;;;;107.10;58.17;;;0.00;93.30;;;;;;5045659;28;20088;-77
2021/03/07 02:13:16;;;;;;;96.45;51.17;;;-0.20;93.40;;;;;;5041841;28;20029;-73
2021/03/07 02:15:47;;;;;;;85.32;46.50;;;-0.10;93.90;;;;;;5041675;28;20112;-76
2021/03/07 02:18:14;;;;;;;94.25;53.17;;;0.00;94.10;;;;;;5044508;28;20065;-77
2021/03/07 02:21:05;;;;;;;89.00;49.13;;;0.00;93.90;;;;;;5045030;28;20079;-76
2021/03/07 02:23:35;;;;;;;87.38;46.53;;;0.10;93.70;;;;;;5032955;28;20108;-77
2021/03/07 02:26:03;;;;;;;109.65;53.92;;;0.10;93.20;;;;;;5043927;28;20120;-77
2021/03/07 02:28:29;;;;;;;129.82;63.72;;;0.00;93.30;;;;;;5044458;28;20026;-75
2021/03/07 02:30:55;;;;;;;102.03;54.35;;;0.00;93.50;;;;;;5042144;28;20120;-76
2021/03/07 02:33:30;;;;;;;127.70;66.82;;;0.00;93.30;;;;;;5043907;28;20017;-77
2021/03/07 02:36:04;;;;;;;131.50;68.25;;;0.00;93.70;;;;;;5045571;28;20006;-75
2021/03/07 02:38:35;;;;;;;129.73;66.40;;;0.00;93.70;;;;;;5040485;28;20053;-77
2021/03/07 02:41:01;;;;;;;162.23;80.82;;;0.00;93.80;;;;;;5043813;28;20032;-77
2021/03/07 02:43:36;;;;;;;161.32;79.50;;;0.00;93.90;;;;;;5045099;28;20502;-77
2021/03/07 02:46:03;;;;;;;158.05;76.10;;;0.00;94.00;;;;;;5044141;28;20056;-77
2021/03/07 02:48:30;;;;;;;150.05;73.20;;;0.00;94.20;;;;;;5043155;28;20096;-72
2021/03/07 02:50:58;;;;;;;153.70;75.82;;;0.00;94.00;;;;;;5041677;28;20044;-77
2021/03/07 02:53:29;;;;;;;149.25;77.20;;;0.00;93.80;;;;;;5043441;28;20005;-72
2021/03/07 02:56:05;;;;;;;144.43;71.30;;;0.00;93.90;;;;;;5042037;28;20406;-76
2021/03/07 02:58:33;;;;;;;134.10;67.32;;;0.00;93.40;;;;;;5042772;28;20026;-76
2021/03/07 03:01:02;;;;;;;128.52;67.00;;;-0.10;93.40;;;;;;5042079;28;20025;-73
2021/03/07 03:03:32;;;;;;;122.65;65.40;;;-0.20;93.70;;;;;;5042903;28;20025;-76
2021/03/07 03:05:59;;;;;;;126.03;68.05;;;-0.20;93.60;;;;;;5046072;28;20029;-77
2021/03/07 03:08:27;;;;;;;130.63;67.72;;;-0.30;93.90;;;;;;5043962;28;20017;-76
2021/03/07 03:10:55;;;;;;;123.53;68.25;;;-0.30;93.70;;;;;;5044434;28;20026;-74
2021/03/07 03:13:21;;;;;;;139.98;73.43;;;-0.40;93.60;;;;;;5042724;28;20026;-77
2021/03/07 03:15:49;;;;;;;135.07;74.38;;;-0.50;94.30;;;;;;5042582;28;20036;-76
2021/03/07 03:18:17;;;;;;;133.15;71.22;;;-0.40;94.80;;;;;;5042027;28;19998;-77
2021/03/07 03:20:44;;;;;;;138.52;75.38;;;-0.40;95.00;;;;;;5043461;28;20025;-77
2021/03/07 03:23:10;;;;;;;131.48;68.40;;;-0.30;94.80;;;;;;5044592;28;20021;-77
2021/03/07 03:25:36;;;;;;;119.07;65.57;;;-0.20;94.30;;;;;;5044242;28;20026;-75
2021/03/07 03:28:03;;;;;;;121.10;67.85;;;-0.40;93.90;;;;;;5042896;28;20022;-77
2021/03/07 03:30:29;;;;;;;119.68;67.28;;;-0.30;94.50;;;;;;5040478;28;20022;-77
2021/03/07 03:32:55;;;;;;;133.63;73.57;;;-0.40;94.40;;;;;;5042031;28;20496;-77
2021/03/07 03:35:21;;;;;;;114.72;62.78;;;-0.40;94.50;;;;;;5042233;28;20033;-77
2021/03/07 03:37:49;;;;;;;111.38;60.10;;;-0.30;94.50;;;;;;5041189;28;20108;-77
2021/03/07 03:40:24;;;;;;;107.20;59.63;;;-0.40;93.90;;;;;;5041717;28;20018;-77
2021/03/07 03:42:54;;;;;;;94.97;53.78;;;-0.40;94.30;;;;;;5043400;28;20419;-76
2021/03/07 03:45:21;;;;;;;88.78;47.08;;;-0.40;94.60;;;;;;5043718;28;20043;-76
2021/03/07 03:47:53;;;;;;;75.75;42.70;;;-0.40;94.70;;;;;;5043613;28;20047;-75
2021/03/07 03:50:20;;;;;;;76.85;42.78;;;-0.40;94.40;;;;;;5042558;28;20109;-76
2021/03/07 03:52:53;;;;;;;80.75;45.08;;;-0.30;94.20;;;;;;5043018;28;20065;-77
2021/03/07 03:55:29;;;;;;;86.65;49.13;;;-0.30;94.10;;;;;;5042864;28;20076;-75
2021/03/07 03:58:03;;;;;;;77.07;42.92;;;-0.30;94.20;;;;;;5041660;28;20449;-77
2021/03/07 04:00:32;;;;;;;88.53;44.35;;;-0.30;93.90;;;;;;5044597;28;20463;-77
2021/03/07 04:02:59;;;;;;;75.10;41.40;;;-0.20;93.80;;;;;;5043300;28;20022;-77
2021/03/07 04:05:28;;;;;;;74.15;37.45;;;-0.30;93.70;;;;;;5044854;28;20116;-77
2021/03/07 04:07:55;;;;;;;79.45;41.45;;;-0.30;94.50;;;;;;5044702;28;20036;-75
2021/03/07 04:10:25;;;;;;;78.45;43.80;;;-0.40;94.70;;;;;;5042617;28;20024;-77
2021/03/07 04:12:56;;;;;;;74.32;39.42;;;-0.40;94.90;;;;;;5043874;28;20005;-74
2021/03/07 04:15:22;;;;;;;90.60;45.60;;;-0.30;94.90;;;;;;5041466;28;20024;-75
2021/03/07 04:17:49;;;;;;;72.63;35.63;;;-0.40;94.70;;;;;;5041695;28;20028;-73
2021/03/07 04:20:16;;;;;;;66.97;34.35;;;-0.40;95.10;;;;;;5039151;28;20375;-76
2021/03/07 04:22:42;;;;;;;66.60;34.10;;;-0.40;94.80;;;;;;5040760;28;20089;-72
2021/03/07 04:25:10;;;;;;;56.40;30.75;;;-0.50;94.90;;;;;;5041695;28;20021;-76
2021/03/07 04:27:36;;;;;;;52.25;29.45;;;-0.50;94.90;;;;;;5041007;28;20022;-76
2021/03/07 04:30:06;;;;;;;71.53;37.47;;;-0.40;94.90;;;;;;5042139;28;20026;-76
2021/03/07 04:32:33;;;;;;;95.88;48.17;;;-0.50;94.80;;;;;;5041972;28;20024;-72
2021/03/07 04:35:02;;;;;;;154.25;78.05;;;-0.50;94.90;;;;;;5043683;28;20026;-76
2021/03/07 04:37:28;;;;;;;72.78;37.25;;;-0.40;94.80;;;;;;5041416;28;20023;-76
2021/03/07 04:39:54;;;;;;;151.75;67.95;;;-0.50;94.70;;;;;;5043435;28;20093;-77
2021/03/07 04:42:21;;;;;;;149.10;66.38;;;-0.50;94.90;;;;;;5044277;28;20013;-77
2021/03/07 04:44:47;;;;;;;131.77;62.40;;;-0.50;95.30;;;;;;5043497;28;20015;-76
2021/03/07 04:47:13;;;;;;;106.80;53.20;;;-0.50;95.10;;;;;;5043637;28;20022;-76
2021/03/07 04:49:39;;;;;;;76.88;41.45;;;-0.50;95.20;;;;;;5043518;28;20128;-75
2021/03/07 04:52:06;;;;;;;65.78;36.47;;;-0.50;95.10;;;;;;5041861;28;20028;-76
2021/03/07 04:54:32;;;;;;;58.17;33.13;;;-0.50;95.30;;;;;;5042746;28;20112;-72
2021/03/07 04:56:57;;;;;;;76.15;43.35;;;-0.50;95.10;;;;;;5042154;28;20045;-76
2021/03/07 04:59:23;;;;;;;56.35;33.63;;;-0.50;94.90;;;;;;5040314;28;20013;-76
2021/03/07 05:01:49;;;;;;;52.60;29.67;;;-0.50;94.80;;;;;;5042708;28;20021;-76
2021/03/07 05:04:15;;;;;;;54.63;30.63;;;-0.70;94.60;;;;;;5042775;28;20025;-76
2021/03/07 05:06:41;;;;;;;65.78;33.90;;;-0.70;95.20;;;;;;5043920;28;20116;-76
2021/03/07 05:09:11;;;;;;;79.35;38.17;;;-0.70;94.80;;;;;;5043999;28;20082;-72
2021/03/07 05:11:37;;;;;;;69.35;37.50;;;-0.70;94.70;;;;;;5042751;28;20387;-76
2021/03/07 05:14:04;;;;;;;66.68;34.97;;;-0.70;94.90;;;;;;5044062;28;20021;-71
2021/03/07 05:16:30;;;;;;;61.58;34.08;;;-0.70;94.70;;;;;;5041790;28;20379;-77
2021/03/07 05:18:56;;;;;;;64.22;34.45;;;-0.70;94.90;;;;;;5042202;28;20005;-76
2021/03/07 05:21:24;;;;;;;68.63;34.63;;;-0.70;95.10;;;;;;5043063;28;20022;-75
2021/03/07 05:23:50;;;;;;;64.20;33.78;;;-0.80;94.50;;;;;;5043352;28;20026;-73
2021/03/07 05:26:16;;;;;;;60.17;32.28;;;-0.80;94.70;;;;;;5043059;28;20018;-76
2021/03/07 05:28:43;;;;;;;55.00;30.25;;;-0.90;94.50;;;;;;5043587;28;20029;-77
2021/03/07 05:31:09;;;;;;;55.97;29.95;;;-0.90;94.50;;;;;;5041772;28;20033;-76
2021/03/07 05:33:35;;;;;;;58.20;31.83;;;-0.90;94.70;;;;;;5043755;28;20022;-76
2021/03/07 05:36:01;;;;;;;60.97;32.40;;;-0.80;95.30;;;;;;5040208;28;20033;-76
2021/03/07 05:38:27;;;;;;;65.80;35.08;;;-0.80;95.50;;;;;;5042478;28;20025;-76
2021/03/07 05:40:54;;;;;;;67.32;37.95;;;-0.80;95.40;;;;;;5041385;28;20045;-76
2021/03/07 05:43:21;;;;;;;72.72;41.08;;;-0.70;96.20;;;;;;5042374;28;20033;-76
2021/03/07 05:45:47;;;;;;;80.28;40.65;;;-0.70;95.40;;;;;;5042982;28;20067;-76
2021/03/07 05:48:13;;;;;;;77.40;40.10;;;-0.80;96.00;;;;;;5042575;28;20060;-76
2021/03/07 05:50:39;;;;;;;74.28;40.17;;;-0.80;96.00;;;;;;5040836;28;20061;-74
2021/03/07 05:53:06;;;;;;;76.60;38.42;;;-0.70;96.40;;;;;;5042076;28;20029;-71
2021/03/07 05:55:34;;;;;;;72.18;38.55;;;-0.70;96.60;;;;;;5041679;28;20006;-76
2021/03/07 05:58:02;;;;;;;75.90;38.63;;;-0.80;96.20;;;;;;5057821;28;20362;-76
2021/03/07 06:00:28;;;;;;;76.88;38.40;;;-0.60;97.00;;;;;;5041580;28;20030;-72
2021/03/07 06:02:54;;;;;;;80.45;39.05;;;-0.40;98.00;;;;;;5043642;28;20029;-74
2021/03/07 06:05:21;;;;;;;88.35;40.72;;;-0.30;98.40;;;;;;5042695;28;20017;-76
2021/03/07 06:07:47;;;;;;;106.15;41.08;;;-0.30;98.50;;;;;;5042817;28;20029;-76
2021/03/07 06:10:22;;;;;;;102.97;42.97;;;-0.20;98.50;;;;;;5042550;28;20028;-72
2021/03/07 06:12:59;;;;;;;109.90;43.53;;;-0.20;99.10;;;;;;5042973;28;20022;-76
2021/03/07 06:15:25;;;;;;;88.18;37.67;;;-0.20;99.50;;;;;;5041225;28;20096;-76
2021/03/07 06:17:51;;;;;;;110.38;40.70;;;-0.10;99.10;;;;;;5041232;28;20049;-75
2021/03/07 06:20:21;;;;;;;109.30;38.38;;;-0.10;99.00;;;;;;5044195;28;20056;-74
2021/03/07 06:22:59;;;;;;;202.07;41.58;;;-0.10;99.20;;;;;;5042537;28;20060;-72
2021/03/07 06:25:26;;;;;;;172.98;39.58;;;-0.10;99.20;;;;;;5043436;28;20089;-76
2021/03/07 06:27:53;;;;;;;107.70;37.20;;;-0.10;99.70;;;;;;5041415;28;20483;-76
2021/03/07 06:30:24;;;;;;;128.63;35.78;;;0.00;99.50;;;;;;5040188;28;20038;-76
2021/03/07 06:32:55;;;;;;;62.70;31.30;;;0.10;99.30;;;;;;5043317;28;20064;-76
2021/03/07 06:35:27;;;;;;;57.05;31.13;;;0.20;99.30;;;;;;5044905;28;20009;-74
2021/03/07 06:37:59;;;;;;;59.03;33.05;;;0.20;99.30;;;;;;5046549;28;20021;-76
2021/03/07 06:40:32;;;;;;;57.65;32.35;;;0.30;98.90;;;;;;5046545;28;20526;-72
2021/03/07 06:43:00;;;;;;;48.67;28.58;;;0.40;98.80;;;;;;5047584;28;20025;-76
2021/03/07 06:45:40;;;;;;;44.67;29.90;;;0.60;98.20;;;;;;5045338;28;20018;-76
2021/03/07 06:48:07;;;;;;;50.22;31.90;;;0.60;98.70;;;;;;5047808;28;20020;-76
2021/03/07 06:50:34;;;;;;;47.80;30.85;;;0.80;97.90;;;;;;5042996;28;20491;-72
2021/03/07 06:53:00;;;;;;;51.90;32.42;;;1.00;97.70;;;;;;5041109;28;20014;-75
2021/03/07 06:55:43;;;;;;;48.20;32.17;;;1.10;97.30;;;;;;5036349;28;20133;-75
2021/03/07 06:58:16;;;;;;;50.38;31.90;;;1.30;96.90;;;;;;5039084;28;20486;-76
2021/03/07 07:00:43;;;;;;;55.80;33.95;;;1.50;96.40;;;;;;5040947;28;20017;-70
2021/03/07 07:03:10;;;;;;;62.85;37.88;;;1.60;96.40;;;;;;5040698;28;20053;-75
2021/03/07 07:05:44;;;;;;;69.28;44.17;;;1.70;96.30;;;;;;5042230;28;20024;-74
2021/03/07 07:08:12;;;;;;;90.45;56.25;;;1.70;96.00;;;;;;5040732;28;20033;-75
2021/03/07 07:11:03;;;;;;;62.72;39.38;;;1.80;96.10;;;;;;5039916;28;20480;-75
2021/03/07 07:13:31;;;;;;;59.83;36.40;;;1.90;96.00;;;;;;5038794;28;20036;-76
2021/03/07 07:15:58;;;;;;;58.10;33.72;;;2.00;96.00;;;;;;5036236;28;20631;-76
2021/03/07 07:18:25;;;;;;;79.70;51.33;;;2.10;96.70;;;;;;5040270;28;20019;-78
2021/03/07 07:20:53;;;;;;;71.65;45.97;;;2.10;95.80;;;;;;5038895;28;20018;-77
2021/03/07 07:23:20;;;;;;;55.50;34.30;;;2.30;95.80;;;;;;5039093;28;20415;-74
2021/03/07 07:25:46;;;;;;;57.90;37.80;;;2.40;95.80;;;;;;5038553;28;20043;-74
2021/03/07 07:28:13;;;;;;;65.72;38.88;;;2.60;95.50;;;;;;5038938;28;20029;-77
2021/03/07 07:30:40;;;;;;;71.25;41.10;;;2.70;94.90;;;;;;5039353;28;20026;-75
2021/03/07 07:33:11;;;;;;;64.13;40.72;;;2.90;95.10;;;;;;5040401;28;20036;-77
2021/03/07 07:35:40;;;;;;;59.17;36.88;;;3.30;94.50;;;;;;5041667;28;20061;-77
2021/03/07 07:38:07;;;;;;;56.90;35.08;;;3.40;92.20;;;;;;5039336;28;20081;-71
2021/03/07 07:40:43;;;;;;;54.05;33.28;;;3.60;93.20;;;;;;5039149;28;20029;-78
2021/03/07 07:43:10;;;;;;;52.55;32.60;;;3.70;92.00;;;;;;5040977;28;20018;-78
2021/03/07 07:45:37;;;;;;;51.15;31.90;;;4.00;92.90;;;;;;5039215;28;20084;-73
2021/03/07 07:48:03;;;;;;;45.40;29.38;;;4.40;93.20;;;;;;5039414;28;20017;-77
2021/03/07 07:50:29;;;;;;;53.58;33.70;;;4.50;90.50;;;;;;5037350;28;20057;-77
2021/03/07 07:53:00;;;;;;;44.30;28.55;;;4.50;90.10;;;;;;5036079;28;20113;-77
2021/03/07 07:55:46;;;;;;;41.03;26.75;;;4.70;90.60;;;;;;5040311;28;20014;-71
2021/03/07 07:58:51;;;;;;;42.03;27.75;;;4.80;89.30;;;;;;5035150;28;20041;-80
2021/03/07 08:01:30;;;;;;;54.95;35.55;;;5.00;88.00;;;;;;5017208;28;20109;-81
2021/03/07 08:03:56;;;;;;;46.20;26.55;;;5.40;82.80;;;;;;5018265;28;20025;-78
2021/03/07 08:06:28;;;;;;;40.65;26.42;;;5.60;81.10;;;;;;5017401;28;20030;-81
2021/03/07 08:08:54;;;;;;;48.75;30.63;;;5.70;85.40;;;;;;5019441;28;20034;-70
2021/03/07 08:11:19;;;;;;;43.85;27.17;;;5.80;80.80;;;;;;5018052;28;20033;-70
2021/03/07 08:13:46;;;;;;;34.47;22.70;;;5.70;72.30;;;;;;5017345;28;20029;-74
2021/03/07 08:16:13;;;;;;;55.95;36.20;;;5.40;69.00;;;;;;5020343;28;20010;-73
2021/03/07 08:18:46;;;;;;;37.55;23.33;;;5.40;77.80;;;;;;5018123;28;20030;-70
2021/03/07 08:21:13;;;;;;;36.08;23.48;;;5.30;69.50;;;;;;5014723;28;20064;-72
2021/03/07 08:24:05;;;;;;;38.40;23.42;;;5.30;68.90;;;;;;5012489;28;20022;-70
2021/03/07 08:26:43;;;;;;;36.80;22.92;;;5.40;70.90;;;;;;5011729;28;20040;-71
2021/03/07 08:29:40;;;;;;;28.58;19.27;;;5.70;73.80;;;;;;5013873;28;20044;-71
2021/03/07 08:32:25;;;;;;;27.92;16.90;;;5.90;68.50;;;;;;5013706;28;20068;-70
2021/03/07 08:34:52;;;;;;;25.20;16.55;;;6.10;66.30;;;;;;5025834;28;20061;-71
2021/03/07 08:37:18;;;;;;;28.95;20.10;;;6.10;65.70;;;;;;5024529;28;20028;-75
2021/03/07 08:39:44;;;;;;;23.15;15.65;;;6.20;64.70;;;;;;5024923;28;20022;-70
2021/03/07 08:42:10;;;;;;;22.25;13.40;;;6.30;63.10;;;;;;5022549;28;20029;-71
2021/03/07 08:44:37;;;;;;;27.60;18.23;;;6.50;62.10;;;;;;5024632;28;20401;-72
2021/03/07 08:47:03;;;;;;;34.53;20.27;;;6.60;63.00;;;;;;5025219;28;20014;-71
2021/03/07 08:49:31;;;;;;;24.02;15.25;;;7.00;68.90;;;;;;5022934;28;20064;-72
2021/03/07 08:52:00;;;;;;;19.48;12.25;;;7.00;62.30;;;;;;5025676;28;20025;-71
2021/03/07 08:54:30;;;;;;;13.02;8.90;;;7.20;59.60;;;;;;5024438;28;20060;-71
2021/03/07 08:56:56;;;;;;;17.95;11.48;;;7.30;56.30;;;;;;5023679;28;20357;-72
2021/03/07 08:59:27;;;;;;;29.73;17.95;;;7.30;54.80;;;;;;5020810;28;20062;-71
2021/03/07 09:01:54;;;;;;;26.35;19.88;;;7.00;53.50;;;;;;5022194;28;20026;-79
2021/03/07 09:04:21;;;;;;;12.07;9.23;;;7.30;56.20;;;;;;5020003;28;20037;-73
2021/03/07 09:06:48;;;;;;;10.57;7.30;;;6.90;55.80;;;;;;5021565;28;20026;-83
2021/03/07 09:09:21;;;;;;;14.23;10.70;;;6.80;52.90;;;;;;5018658;28;20029;-81
2021/03/07 09:11:57;;;;;;;19.63;11.95;;;6.80;53.30;;;;;;5016920;28;20061;-76
2021/03/07 09:14:34;;;;;;;18.02;12.75;;;6.90;52.60;;;;;;5020075;28;20045;-83
2021/03/07 09:17:23;;;;;;;11.77;7.93;;;7.30;52.80;;;;;;5019187;28;20037;-78
2021/03/07 09:19:49;;;;;;;19.38;12.35;;;7.50;50.30;;;;;;5020759;28;20022;-69
2021/03/07 09:22:19;;;;;;;51.03;26.50;;;7.80;48.40;;;;;;5019904;28;20022;-74
2021/03/07 09:25:05;;;;;;;19.30;10.43;;;7.60;46.90;;;;;;5019457;28;20076;-76
2021/03/07 09:27:37;;;;;;;13.95;7.53;;;7.70;47.10;;;;;;5021785;28;20036;-76
2021/03/07 09:30:12;;;;;;;8.43;5.75;;;8.10;49.60;;;;;;5023716;28;20053;-76
2021/03/07 09:32:38;;;;;;;;;;;8.50;46.30;;;;;;5026266;28;20549;-68
2021/03/07 09:35:34;;;;;;;9.98;5.68;;;8.20;44.10;;;;;;5022291;28;19890;-75
2021/03/07 09:38:02;;;;;;;8.80;5.63;;;8.00;44.90;;;;;;5022656;28;20026;-69
2021/03/07 09:40:40;;;;;;;7.40;5.05;;;7.80;44.70;;;;;;5015461;28;20040;-69
2021/03/07 09:43:13;;;;;;;9.07;5.82;;;7.80;44.40;;;;;;5017970;28;20472;-75
2021/03/07 09:45:45;;;;;;;16.42;7.93;;;8.30;46.20;;;;;;5021451;28;20105;-73
2021/03/07 09:48:11;;;;;;;8.10;5.72;;;8.50;43.90;;;;;;5021092;28;20030;-74
2021/03/07 09:50:41;;;;;;;50.45;30.58;;;8.70;43.90;;;;;;5020848;28;20081;-69
2021/03/07 09:53:07;;;;;;;13.77;7.90;;;8.20;43.80;;;;;;5019366;28;20034;-76
2021/03/07 09:55:35;;;;;;;8.43;5.72;;;8.50;46.30;;;;;;5021845;28;20117;-74
2021/03/07 09:58:03;;;;;;;9.75;7.07;;;8.70;45.70;;;;;;5020311;28;20042;-68
2021/03/07 10:00:30;;;;;;;9.32;7.22;;;9.10;45.50;;;;;;5025909;28;20041;-69
2021/03/07 10:02:57;;;;;;;10.85;7.03;;;9.10;45.50;;;;;;5025623;28;20018;-68
2021/03/07 10:05:23;;;;;;;12.10;7.05;;;9.20;43.00;;;;;;5023591;28;20057;-75
2021/03/07 10:07:49;;;;;;;8.95;5.22;;;9.60;42.10;;;;;;5024484;28;20383;-70
2021/03/07 10:10:26;;;;;;;8.35;6.25;;;9.20;40.10;;;;;;5023940;28;20030;-76
2021/03/07 10:12:57;;;;;;;14.55;10.63;;;9.50;43.40;;;;;;5023450;28;20025;-71
2021/03/07 10:15:32;;;;;;;8.98;5.38;;;9.20;41.90;;;;;;5024344;28;20029;-77
2021/03/07 10:18:13;;;;;;;21.95;12.43;;;9.20;41.50;;;;;;5023543;28;20113;-67
2021/03/07 10:20:45;;;;;;;12.98;6.15;;;9.40;42.40;;;;;;5019830;28;20041;-70
2021/03/07 10:23:12;;;;;;;9.63;6.88;;;9.80;42.50;;;;;;5024357;28;20097;-76
2021/03/07 10:25:40;;;;;;;10.63;7.97;;;10.10;41.90;;;;;;5025004;28;20030;-71
2021/03/07 10:28:08;;;;;;;15.85;8.23;;;10.20;40.10;;;;;;5023876;28;20006;-75
2021/03/07 10:30:39;;;;;;;11.45;7.55;;;10.00;39.30;;;;;;5025085;28;20025;-69
2021/03/07 10:33:16;;;;;;;23.17;12.63;;;9.80;41.40;;;;;;5024073;28;20113;-75
2021/03/07 10:36:12;;;;;;;16.08;8.60;;;10.20;41.90;;;;;;5024234;28;20090;-74
2021/03/07 10:38:46;;;;;;;21.02;12.20;;;10.00;42.70;;;;;;5024853;28;20006;-75
2021/03/07 10:41:24;;;;;;;18.77;9.50;;;10.10;42.00;;;;;;5025440;28;20013;-74
2021/03/07 10:43:58;;;;;;;15.50;10.45;;;;;;;;;;5026276;28;20053;-75
2021/03/07 10:46:31;;;;;;;15.53;7.70;;;10.60;42.50;;;;;;5026076;28;20025;-76
2021/03/07 10:48:59;;;;;;;10.93;6.18;;;10.30;41.30;;;;;;5023214;28;20334;-70
2021/03/07 10:51:25;;;;;;;13.10;7.18;;;10.90;40.70;;;;;;5025591;28;20068;-68
2021/03/07 10:53:54;;;;;;;10.90;6.53;;;10.80;42.70;;;;;;5020895;28;20030;-74
2021/03/07 10:56:20;;;;;;;17.25;10.60;;;11.30;40.10;;;;;;5021006;28;20377;-74
2021/03/07 10:58:47;;;;;;;8.60;5.70;;;10.80;40.50;;;;;;5024274;28;20384;-73
2021/03/07 11:01:17;;;;;;;12.65;7.80;;;10.50;40.10;;;;;;5020712;28;20018;-74
2021/03/07 11:03:43;;;;;;;25.17;14.80;;;10.60;41.40;;;;;;5022223;28;20603;-69
2021/03/07 11:06:10;;;;;;;16.77;10.88;;;10.90;41.50;;;;;;5017169;28;20022;-69
2021/03/07 11:08:37;;;;;;;10.25;6.50;;;12.10;42.10;;;;;;5020119;28;20061;-70
2021/03/07 11:11:04;;;;;;;12.43;7.95;;;11.60;38.80;;;;;;5022065;28;20030;-72
2021/03/07 11:13:30;;;;;;;33.50;17.15;;;11.30;39.30;;;;;;5023151;28;20010;-74
2021/03/07 11:15:56;;;;;;;11.63;5.60;;;11.80;39.60;;;;;;5022433;28;20029;-73
2021/03/07 11:18:22;;;;;;;9.75;6.53;;;11.50;39.40;;;;;;5022929;28;20014;-74
2021/03/07 11:20:49;;;;;;;8.05;5.18;;;11.60;40.20;;;;;;5021364;28;20109;-70
2021/03/07 11:23:16;;;;;;;9.02;5.88;;;11.50;37.90;;;;;;5025239;28;20022;-69
2021/03/07 11:25:42;;;;;;;10.85;7.03;;;11.20;39.90;;;;;;5025571;28;20014;-75
2021/03/07 11:28:08;;;;;;;9.30;6.32;;;11.00;38.70;;;;;;5023073;28;20475;-71
2021/03/07 11:30:35;;;;;;;14.05;8.45;;;11.20;39.60;;;;;;5022480;28;20097;-75
2021/03/07 11:33:01;;;;;;;13.77;8.50;;;11.30;40.20;;;;;;5024671;28;20023;-73
2021/03/07 11:35:27;;;;;;;31.80;16.80;;;11.40;39.10;;;;;;5023269;28;20026;-67
2021/03/07 11:37:54;;;;;;;9.77;6.15;;;11.00;37.90;;;;;;5022730;28;20022;-72
2021/03/07 11:40:26;;;;;;;16.60;9.38;;;11.00;38.70;;;;;;5023907;28;20022;-74
2021/03/07 11:42:53;;;;;;;12.55;6.93;;;11.50;38.00;;;;;;5023197;28;20026;-73
2021/03/07 11:45:19;;;;;;;19.45;12.77;;;11.20;37.80;;;;;;5025821;28;20018;-73
2021/03/07 11:47:46;;;;;;;15.23;8.65;;;11.30;40.10;;;;;;5023726;28;20053;-69
2021/03/07 11:50:13;;;;;;;34.28;19.77;;;11.20;39.40;;;;;;5022230;28;20042;-67
2021/03/07 11:52:38;;;;;;;15.82;10.18;;;11.70;39.90;;;;;;5021674;28;20026;-69
2021/03/07 11:55:05;;;;;;;71.90;38.05;;;11.90;41.40;;;;;;5020362;28;20026;-69
2021/03/07 11:57:31;;;;;;;9.43;6.13;;;12.00;45.80;;;;;;5016678;28;20018;-69
2021/03/07 11:59:57;;;;;;;15.65;9.23;;;12.00;36.90;;;;;;5017589;28;20030;-72
2021/03/07 12:02:23;;;;;;;22.75;13.43;;;12.90;37.70;;;;;;5020063;28;20109;-73
2021/03/07 12:04:49;;;;;;;46.90;25.63;;;12.70;36.70;;;;;;5019884;28;20006;-69
2021/03/07 12:07:15;;;;;;;9.65;6.70;;;12.10;36.30;;;;;;5020797;28;20029;-74
2021/03/07 12:09:41;;;;;;;23.95;13.93;;;12.30;37.00;;;;;;5022372;28;20384;-74
2021/03/07 12:12:08;;;;;;;22.02;12.43;;;13.60;48.30;;;;;;5021854;28;20475;-68
2021/03/07 12:14:34;;;;;;;28.35;17.33;;;14.10;37.70;;;;;;5021488;28;20049;-68
2021/03/07 12:16:59;;;;;;;14.60;8.95;;;13.50;38.10;;;;;;5020429;28;20026;-66
2021/03/07 12:19:25;;;;;;;20.80;14.02;;;13.70;37.60;;;;;;5017498;28;20106;-66
2021/03/07 12:21:51;;;;;;;21.98;12.20;;;13.60;36.40;;;;;;5015779;28;20022;-67
2021/03/07 12:24:18;;;;;;;15.30;9.93;;;13.00;36.00;;;;;;5020918;28;20088;-67
2021/03/07 12:26:44;;;;;;;16.05;9.88;;;12.50;35.70;;;;;;5019310;28;20006;-74
2021/03/07 12:29:10;;;;;;;12.13;7.60;;;12.50;36.80;;;;;;5020795;28;20130;-73
2021/03/07 12:31:35;;;;;;;11.13;6.57;;;12.70;39.90;;;;;;5020663;28;20025;-71
2021/03/07 12:34:02;;;;;;;36.50;22.40;;;12.20;35.20;;;;;;5018152;28;20010;-67
2021/03/07 12:36:28;;;;;;;19.48;12.18;;;12.20;36.90;;;;;;5020410;28;20022;-67
2021/03/07 12:38:54;;;;;;;27.75;17.38;;;12.30;38.60;;;;;;5017551;28;20077;-74
2021/03/07 12:41:21;;;;;;;51.08;28.98;;;12.70;38.80;;;;;;5016206;28;20149;-67